createdAt,value
2023-02-03T00:15:01.924Z,972.56
2023-02-03T00:30:04.164Z,972.58
2023-02-03T00:45:06.388Z,972.61
2023-02-03T01:00:08.509Z,972.56
2023-02-03T01:15:10.713Z,972.58
2023-02-03T01:30:12.967Z,972.57
2023-02-03T01:45:15.397Z,972.54
2023-02-03T02:00:17.649Z,972.47
2023-02-03T02:15:19.909Z,972.37
2023-02-03T02:30:22.193Z,972.14
2023-02-03T02:45:24.404Z,972.11
2023-02-03T03:00:26.973Z,972.2
2023-02-03T03:15:29.511Z,971.9
2023-02-03T03:30:31.761Z,971.81
2023-02-03T03:45:34.038Z,971.65
2023-02-03T04:00:36.258Z,971.51
2023-02-03T04:15:38.529Z,971.65
2023-02-03T04:30:40.818Z,971.78
2023-02-03T04:45:43.154Z,971.95
2023-02-03T05:00:45.648Z,971.99
2023-02-03T05:15:47.960Z,972.09
2023-02-03T05:30:50.312Z,972.11
2023-02-03T05:45:52.917Z,972.13
2023-02-03T06:00:55.244Z,972.14
2023-02-03T06:15:57.501Z,971.99
2023-02-03T06:30:59.908Z,971.97
2023-02-03T06:46:02.277Z,971.94
2023-02-03T07:01:04.588Z,971.73
2023-02-03T07:16:07.248Z,971.9
2023-02-03T07:31:09.486Z,971.69
2023-02-03T07:46:11.786Z,971.55
2023-02-03T08:01:13.935Z,971.56
2023-02-03T08:16:16.166Z,971.96
2023-02-03T08:31:18.637Z,971.4
2023-02-03T08:46:21.001Z,971.29
2023-02-03T09:01:23.378Z,971.43
2023-02-03T09:16:25.673Z,971.3
2023-02-03T09:31:27.958Z,971.15
2023-02-03T09:46:30.200Z,971.05
2023-02-03T10:01:32.493Z,971.07
2023-02-03T10:16:34.805Z,971.03
2023-02-03T10:31:37.290Z,970.81
2023-02-03T10:46:39.676Z,970.58
2023-02-03T11:01:42.095Z,970.35
2023-02-03T11:16:44.649Z,970.13
2023-02-03T11:31:47.171Z,970.24
2023-02-03T11:46:49.517Z,970.18
2023-02-03T12:01:51.801Z,970.31
2023-02-03T12:16:54.110Z,970.12
2023-02-03T12:31:56.471Z,969.88
2023-02-03T12:46:58.687Z,969.52
2023-02-03T13:02:00.955Z,969.8
2023-02-03T13:17:03.219Z,969.37
2023-02-03T13:32:05.539Z,969.23
2023-02-03T13:47:07.783Z,969.15
2023-02-03T14:02:10.051Z,968.96
2023-02-03T14:17:12.533Z,968.8
2023-02-03T14:32:14.803Z,968.54
2023-02-03T14:47:17.065Z,968.41
2023-02-03T15:02:19.348Z,968.47
2023-02-03T15:17:21.573Z,968.44
2023-02-03T15:32:23.827Z,968.31
2023-02-03T15:47:26.075Z,967.86
2023-02-03T16:02:28.417Z,967.87
2023-02-03T16:17:30.935Z,967.66
2023-02-03T16:32:33.155Z,967.1
2023-02-03T16:47:35.453Z,967.35
2023-02-03T17:02:37.887Z,967.4
2023-02-03T17:17:40.164Z,967.13
2023-02-03T17:32:42.440Z,966.87
2023-02-03T18:04:58.378Z,966.38
2023-02-03T18:20:00.715Z,966.31
2023-02-03T18:35:03.076Z,966.2
2023-02-03T18:50:05.444Z,965.6
2023-02-03T19:05:07.693Z,965.51
2023-02-03T19:20:10.061Z,965.45
2023-02-03T19:35:12.421Z,965.21
2023-02-03T19:50:14.666Z,964.82
2023-02-03T20:05:16.897Z,964.6
2023-02-03T20:20:20.746Z,964.36
2023-02-03T20:35:23.240Z,963.91
2023-02-03T20:50:34.249Z,963.71
2023-02-03T21:05:39.852Z,963.57
2023-02-03T21:20:42.111Z,963.27
2023-02-03T21:35:44.417Z,963.1
2023-02-03T21:50:46.632Z,963.09
2023-02-03T22:05:48.847Z,962.93
2023-02-03T22:20:51.131Z,962.84
2023-02-03T22:35:53.397Z,962.56
2023-02-03T22:50:55.757Z,962.64
2023-02-03T23:05:58.172Z,962.85
2023-02-03T23:21:00.475Z,962.7
2023-02-03T23:36:02.656Z,962.64
2023-02-03T23:51:04.880Z,962.66
